sensor_id;sensor_type;location;lat;lon;timestamp;temperature;humidity
16823;DHT22;8528;49.976;11.858;2022-07-29T00:00:16;14.30;99.90
16823;DHT22;8528;49.976;11.858;2022-07-29T00:02:43;14.20;99.90
16823;DHT22;8528;49.976;11.858;2022-07-29T00:05:10;14.30;99.90
16823;DHT22;8528;49.976;11.858;2022-07-29T00:07:40;14.30;99.90
16823;DHT22;8528;49.976;11.858;2022-07-29T00:10:08;14.20;99.90
16823;DHT22;8528;49.976;11.858;2022-07-29T00:12:35;14.20;99.90
16823;DHT22;8528;49.976;11.858;2022-07-29T00:15:03;14.20;99.90
16823;DHT22;8528;49.976;11.858;2022-07-29T00:17:33;14.20;99.90
16823;DHT22;8528;49.976;11.858;2022-07-29T00:20:00;14.20;99.90
16823;DHT22;8528;49.976;11.858;2022-07-29T00:22:27;14.10;99.90
16823;DHT22;8528;49.976;11.858;2022-07-29T00:24:54;14.00;99.90
16823;DHT22;8528;49.976;11.858;2022-07-29T00:27:21;13.90;99.90
16823;DHT22;8528;49.976;11.858;2022-07-29T00:29:48;13.90;99.90
16823;DHT22;8528;49.976;11.858;2022-07-29T00:32:15;14.00;99.90
16823;DHT22;8528;49.976;11.858;2022-07-29T00:34:42;13.90;99.90
16823;DHT22;8528;49.976;11.858;2022-07-29T00:37:31;14.00;99.90
16823;DHT22;8528;49.976;11.858;2022-07-29T00:39:58;13.90;99.90
16823;DHT22;8528;49.976;11.858;2022-07-29T00:42:25;13.90;99.90
16823;DHT22;8528;49.976;11.858;2022-07-29T00:44:52;13.90;99.90
16823;DHT22;8528;49.976;11.858;2022-07-29T00:47:19;13.90;99.90
16823;DHT22;8528;49.976;11.858;2022-07-29T00:49:46;13.80;99.90
16823;DHT22;8528;49.976;11.858;2022-07-29T00:52:13;13.80;99.90
16823;DHT22;8528;49.976;11.858;2022-07-29T00:54:42;13.80;99.90
16823;DHT22;8528;49.976;11.858;2022-07-29T00:57:13;13.80;99.90
16823;DHT22;8528;49.976;11.858;2022-07-29T00:59:43;13.80;99.90
16823;DHT22;8528;49.976;11.858;2022-07-29T01:02:10;13.80;99.90
16823;DHT22;8528;49.976;11.858;2022-07-29T01:04:37;13.80;99.90
16823;DHT22;8528;49.976;11.858;2022-07-29T01:07:05;13.80;99.90
16823;DHT22;8528;49.976;11.858;2022-07-29T01:09:35;13.80;99.90
16823;DHT22;8528;49.976;11.858;2022-07-29T01:12:24;13.90;99.90
16823;DHT22;8528;49.976;11.858;2022-07-29T01:14:52;13.90;99.90
16823;DHT22;8528;49.976;11.858;2022-07-29T01:20:26;13.80;99.90
16823;DHT22;8528;49.976;11.858;2022-07-29T01:29:02;13.80;99.90
16823;DHT22;8528;49.976;11.858;2022-07-29T01:31:45;13.90;99.90
16823;DHT22;8528;49.976;11.858;2022-07-29T01:37:22;13.90;99.90
16823;DHT22;8528;49.976;11.858;2022-07-29T01:39:55;14.00;99.90
16823;DHT22;8528;49.976;11.858;2022-07-29T01:45:12;14.00;99.90
16823;DHT22;8528;49.976;11.858;2022-07-29T01:48:18;14.10;99.90
16823;DHT22;8528;49.976;11.858;2022-07-29T01:56:26;14.40;99.90
16823;DHT22;8528;49.976;11.858;2022-07-29T01:58:59;14.40;99.90
16823;DHT22;8528;49.976;11.858;2022-07-29T02:01:31;14.50;99.90
16823;DHT22;8528;49.976;11.858;2022-07-29T02:04:03;14.50;99.90
16823;DHT22;8528;49.976;11.858;2022-07-29T02:06:33;14.50;99.90
16823;DHT22;8528;49.976;11.858;2022-07-29T02:09:02;14.50;99.90
16823;DHT22;8528;49.976;11.858;2022-07-29T02:11:35;14.60;99.90
16823;DHT22;8528;49.976;11.858;2022-07-29T02:14:04;14.70;99.90
16823;DHT22;8528;49.976;11.858;2022-07-29T02:16:32;14.80;99.90
16823;DHT22;8528;49.976;11.858;2022-07-29T02:19:01;14.80;99.90
16823;DHT22;8528;49.976;11.858;2022-07-29T02:21:33;14.90;99.90
16823;DHT22;8528;49.976;11.858;2022-07-29T02:24:04;14.90;99.90
16823;DHT22;8528;49.976;11.858;2022-07-29T02:26:34;14.90;99.90
16823;DHT22;8528;49.976;11.858;2022-07-29T02:29:08;14.90;99.90
16823;DHT22;8528;49.976;11.858;2022-07-29T02:31:38;14.90;99.90
16823;DHT22;8528;49.976;11.858;2022-07-29T02:34:07;14.90;99.90
16823;DHT22;8528;49.976;11.858;2022-07-29T02:36:35;14.90;99.90
16823;DHT22;8528;49.976;11.858;2022-07-29T02:39:03;14.90;99.90
16823;DHT22;8528;49.976;11.858;2022-07-29T02:41:37;14.90;99.90
16823;DHT22;8528;49.976;11.858;2022-07-29T02:44:12;14.70;99.90
16823;DHT22;8528;49.976;11.858;2022-07-29T02:49:57;14.60;99.90
16823;DHT22;8528;49.976;11.858;2022-07-29T02:55:00;14.60;99.90
16823;DHT22;8528;49.976;11.858;2022-07-29T02:57:37;14.60;99.90
16823;DHT22;8528;49.976;11.858;2022-07-29T03:00:22;14.60;99.90
16823;DHT22;8528;49.976;11.858;2022-07-29T03:02:56;14.50;99.90
16823;DHT22;8528;49.976;11.858;2022-07-29T03:05:24;14.40;99.90
16823;DHT22;8528;49.976;11.858;2022-07-29T03:08:04;14.40;99.90
16823;DHT22;8528;49.976;11.858;2022-07-29T03:10:32;14.30;99.90
16823;DHT22;8528;49.976;11.858;2022-07-29T03:13:07;14.30;99.90
16823;DHT22;8528;49.976;11.858;2022-07-29T03:15:38;14.30;99.90
16823;DHT22;8528;49.976;11.858;2022-07-29T03:18:16;14.30;99.90
16823;DHT22;8528;49.976;11.858;2022-07-29T03:20:43;14.20;99.90
16823;DHT22;8528;49.976;11.858;2022-07-29T03:23:10;14.10;99.90
16823;DHT22;8528;49.976;11.858;2022-07-29T03:25:37;14.20;99.90
16823;DHT22;8528;49.976;11.858;2022-07-29T03:28:04;14.20;99.90
16823;DHT22;8528;49.976;11.858;2022-07-29T03:30:31;14.20;99.90
16823;DHT22;8528;49.976;11.858;2022-07-29T03:33:01;14.20;99.90
16823;DHT22;8528;49.976;11.858;2022-07-29T03:35:39;14.10;99.90
16823;DHT22;8528;49.976;11.858;2022-07-29T03:38:06;14.20;99.90
16823;DHT22;8528;49.976;11.858;2022-07-29T03:43:08;14.20;99.90
16823;DHT22;8528;49.976;11.858;2022-07-29T03:45:37;14.20;99.90
16823;DHT22;8528;49.976;11.858;2022-07-29T03:48:10;14.10;99.90
16823;DHT22;8528;49.976;11.858;2022-07-29T03:50:39;14.10;99.90
16823;DHT22;8528;49.976;11.858;2022-07-29T03:53:07;14.10;99.90
16823;DHT22;8528;49.976;11.858;2022-07-29T03:55:40;14.00;99.90
16823;DHT22;8528;49.976;11.858;2022-07-29T03:58:13;14.10;99.90
16823;DHT22;8528;49.976;11.858;2022-07-29T04:00:41;14.10;99.90
16823;DHT22;8528;49.976;11.858;2022-07-29T04:03:09;14.10;99.90
16823;DHT22;8528;49.976;11.858;2022-07-29T04:05:37;14.10;99.90
16823;DHT22;8528;49.976;11.858;2022-07-29T04:08:05;14.10;99.90
16823;DHT22;8528;49.976;11.858;2022-07-29T04:10:38;14.10;99.90
16823;DHT22;8528;49.976;11.858;2022-07-29T04:13:05;14.10;99.90
16823;DHT22;8528;49.976;11.858;2022-07-29T04:15:32;14.10;99.90
16823;DHT22;8528;49.976;11.858;2022-07-29T04:18:02;14.20;99.90
16823;DHT22;8528;49.976;11.858;2022-07-29T04:20:29;14.10;99.90
16823;DHT22;8528;49.976;11.858;2022-07-29T04:22:56;14.20;99.90
16823;DHT22;8528;49.976;11.858;2022-07-29T04:25:23;14.30;99.90
16823;DHT22;8528;49.976;11.858;2022-07-29T04:27:50;14.40;99.90
16823;DHT22;8528;49.976;11.858;2022-07-29T04:30:33;14.50;99.90
16823;DHT22;8528;49.976;11.858;2022-07-29T04:33:02;14.50;99.90
16823;DHT22;8528;49.976;11.858;2022-07-29T04:35:47;14.50;99.90
16823;DHT22;8528;49.976;11.858;2022-07-29T04:38:21;14.50;99.90
16823;DHT22;8528;49.976;11.858;2022-07-29T04:40:48;14.50;99.90
16823;DHT22;8528;49.976;11.858;2022-07-29T04:43:15;14.60;99.90
16823;DHT22;8528;49.976;11.858;2022-07-29T04:45:51;14.70;99.90
16823;DHT22;8528;49.976;11.858;2022-07-29T04:48:18;14.70;99.90
16823;DHT22;8528;49.976;11.858;2022-07-29T04:50:52;14.80;99.90
16823;DHT22;8528;49.976;11.858;2022-07-29T04:53:18;15.00;99.90
16823;DHT22;8528;49.976;11.858;2022-07-29T04:55:46;15.10;99.90
16823;DHT22;8528;49.976;11.858;2022-07-29T04:58:13;15.20;99.90
16823;DHT22;8528;49.976;11.858;2022-07-29T05:00:40;15.20;99.90
16823;DHT22;8528;49.976;11.858;2022-07-29T05:03:07;15.40;99.90
16823;DHT22;8528;49.976;11.858;2022-07-29T05:05:34;15.50;99.90
16823;DHT22;8528;49.976;11.858;2022-07-29T05:08:00;15.60;99.90
16823;DHT22;8528;49.976;11.858;2022-07-29T05:10:28;15.60;99.90
16823;DHT22;8528;49.976;11.858;2022-07-29T05:12:57;15.60;99.90
16823;DHT22;8528;49.976;11.858;2022-07-29T05:15:24;15.70;99.90
16823;DHT22;8528;49.976;11.858;2022-07-29T05:17:51;15.90;99.90
16823;DHT22;8528;49.976;11.858;2022-07-29T05:20:18;16.00;99.90
16823;DHT22;8528;49.976;11.858;2022-07-29T05:22:45;16.00;99.90
16823;DHT22;8528;49.976;11.858;2022-07-29T05:25:12;16.10;99.90
16823;DHT22;8528;49.976;11.858;2022-07-29T05:27:39;16.30;99.90
16823;DHT22;8528;49.976;11.858;2022-07-29T05:30:06;16.50;99.90
16823;DHT22;8528;49.976;11.858;2022-07-29T05:32:33;16.70;99.90
16823;DHT22;8528;49.976;11.858;2022-07-29T05:35:00;16.70;99.90
16823;DHT22;8528;49.976;11.858;2022-07-29T05:37:27;16.80;99.90
16823;DHT22;8528;49.976;11.858;2022-07-29T05:39:54;17.00;99.90
16823;DHT22;8528;49.976;11.858;2022-07-29T05:42:23;17.10;99.90
16823;DHT22;8528;49.976;11.858;2022-07-29T05:44:50;17.30;99.90
16823;DHT22;8528;49.976;11.858;2022-07-29T05:47:17;17.40;99.90
16823;DHT22;8528;49.976;11.858;2022-07-29T05:49:47;17.60;99.90
16823;DHT22;8528;49.976;11.858;2022-07-29T05:52:18;17.70;99.90
16823;DHT22;8528;49.976;11.858;2022-07-29T05:54:48;17.80;99.90
16823;DHT22;8528;49.976;11.858;2022-07-29T05:57:24;17.90;99.90
16823;DHT22;8528;49.976;11.858;2022-07-29T05:59:51;18.00;99.90
16823;DHT22;8528;49.976;11.858;2022-07-29T06:02:24;18.00;99.90
16823;DHT22;8528;49.976;11.858;2022-07-29T06:04:51;18.10;99.90
16823;DHT22;8528;49.976;11.858;2022-07-29T06:07:18;18.10;99.90
16823;DHT22;8528;49.976;11.858;2022-07-29T06:09:45;18.00;99.90
16823;DHT22;8528;49.976;11.858;2022-07-29T06:12:18;18.00;99.90
16823;DHT22;8528;49.976;11.858;2022-07-29T06:14:46;18.10;99.90
16823;DHT22;8528;49.976;11.858;2022-07-29T06:17:19;18.20;99.90
16823;DHT22;8528;49.976;11.858;2022-07-29T06:19:46;18.20;99.90
16823;DHT22;8528;49.976;11.858;2022-07-29T06:22:16;18.30;99.90
16823;DHT22;8528;49.976;11.858;2022-07-29T06:24:46;18.30;99.90
16823;DHT22;8528;49.976;11.858;2022-07-29T06:27:13;18.30;99.90
16823;DHT22;8528;49.976;11.858;2022-07-29T06:29:40;18.30;99.90
16823;DHT22;8528;49.976;11.858;2022-07-29T06:32:07;18.20;99.90
16823;DHT22;8528;49.976;11.858;2022-07-29T06:34:35;18.20;99.90
16823;DHT22;8528;49.976;11.858;2022-07-29T06:37:06;18.30;99.90
16823;DHT22;8528;49.976;11.858;2022-07-29T06:39:41;18.30;99.90
16823;DHT22;8528;49.976;11.858;2022-07-29T06:42:11;18.40;99.90
16823;DHT22;8528;49.976;11.858;2022-07-29T06:44:41;18.70;99.90
16823;DHT22;8528;49.976;11.858;2022-07-29T06:47:08;18.90;99.90
16823;DHT22;8528;49.976;11.858;2022-07-29T06:49:35;18.90;99.90
16823;DHT22;8528;49.976;11.858;2022-07-29T06:52:03;18.80;99.90
16823;DHT22;8528;49.976;11.858;2022-07-29T06:54:30;18.70;99.90
16823;DHT22;8528;49.976;11.858;2022-07-29T06:56:57;18.70;99.90
16823;DHT22;8528;49.976;11.858;2022-07-29T06:59:25;18.90;99.90
16823;DHT22;8528;49.976;11.858;2022-07-29T07:02:04;19.00;99.90
16823;DHT22;8528;49.976;11.858;2022-07-29T07:04:30;19.30;99.90
16823;DHT22;8528;49.976;11.858;2022-07-29T07:07:00;19.60;99.90
16823;DHT22;8528;49.976;11.858;2022-07-29T07:09:28;19.80;99.90
16823;DHT22;8528;49.976;11.858;2022-07-29T07:12:06;20.00;99.90
16823;DHT22;8528;49.976;11.858;2022-07-29T07:14:34;20.10;99.90
16823;DHT22;8528;49.976;11.858;2022-07-29T07:17:00;20.40;99.90
16823;DHT22;8528;49.976;11.858;2022-07-29T07:19:37;20.90;99.80
16823;DHT22;8528;49.976;11.858;2022-07-29T07:22:04;21.50;98.90
16823;DHT22;8528;49.976;11.858;2022-07-29T07:24:30;21.90;96.70
16823;DHT22;8528;49.976;11.858;2022-07-29T07:26:57;22.20;95.70
16823;DHT22;8528;49.976;11.858;2022-07-29T07:29:26;22.00;94.70
16823;DHT22;8528;49.976;11.858;2022-07-29T07:31:59;22.00;95.00
16823;DHT22;8528;49.976;11.858;2022-07-29T07:34:30;21.90;94.80
16823;DHT22;8528;49.976;11.858;2022-07-29T07:37:00;21.60;95.70
16823;DHT22;8528;49.976;11.858;2022-07-29T07:39:27;21.70;96.30
16823;DHT22;8528;49.976;11.858;2022-07-29T07:41:53;21.90;95.40
16823;DHT22;8528;49.976;11.858;2022-07-29T07:44:20;22.30;95.20
16823;DHT22;8528;49.976;11.858;2022-07-29T07:46:48;22.70;94.70
16823;DHT22;8528;49.976;11.858;2022-07-29T07:49:15;23.10;94.30
16823;DHT22;8528;49.976;11.858;2022-07-29T07:51:45;23.40;93.10
16823;DHT22;8528;49.976;11.858;2022-07-29T07:54:16;23.00;93.00
16823;DHT22;8528;49.976;11.858;2022-07-29T07:56:46;22.60;93.50
16823;DHT22;8528;49.976;11.858;2022-07-29T07:59:21;22.40;93.60
16823;DHT22;8528;49.976;11.858;2022-07-29T08:01:49;22.30;94.00
16823;DHT22;8528;49.976;11.858;2022-07-29T08:04:21;22.30;94.00
16823;DHT22;8528;49.976;11.858;2022-07-29T08:06:57;22.10;94.40
16823;DHT22;8528;49.976;11.858;2022-07-29T08:09:28;22.00;94.60
16823;DHT22;8528;49.976;11.858;2022-07-29T08:11:57;22.00;94.80
16823;DHT22;8528;49.976;11.858;2022-07-29T08:14:25;22.00;95.00
16823;DHT22;8528;49.976;11.858;2022-07-29T08:16:51;22.10;94.80
16823;DHT22;8528;49.976;11.858;2022-07-29T08:19:18;22.40;94.70
16823;DHT22;8528;49.976;11.858;2022-07-29T08:21:45;22.80;93.70
16823;DHT22;8528;49.976;11.858;2022-07-29T08:24:12;23.10;93.00
16823;DHT22;8528;49.976;11.858;2022-07-29T08:27:01;23.20;92.70
16823;DHT22;8528;49.976;11.858;2022-07-29T08:29:28;23.30;92.10
16823;DHT22;8528;49.976;11.858;2022-07-29T08:31:58;23.30;91.90
16823;DHT22;8528;49.976;11.858;2022-07-29T08:34:26;23.30;92.40
16823;DHT22;8528;49.976;11.858;2022-07-29T08:36:57;23.50;91.50
16823;DHT22;8528;49.976;11.858;2022-07-29T08:39:24;23.70;91.40
16823;DHT22;8528;49.976;11.858;2022-07-29T08:41:54;23.70;91.10
16823;DHT22;8528;49.976;11.858;2022-07-29T08:44:23;23.90;91.60
16823;DHT22;8528;49.976;11.858;2022-07-29T08:46:56;24.10;90.60
16823;DHT22;8528;49.976;11.858;2022-07-29T08:49:23;24.40;90.30
16823;DHT22;8528;49.976;11.858;2022-07-29T08:51:51;24.40;89.10
16823;DHT22;8528;49.976;11.858;2022-07-29T08:54:22;24.50;89.80
16823;DHT22;8528;49.976;11.858;2022-07-29T08:56:50;24.50;88.70
16823;DHT22;8528;49.976;11.858;2022-07-29T08:59:21;24.50;88.20
16823;DHT22;8528;49.976;11.858;2022-07-29T09:01:52;24.30;88.50
16823;DHT22;8528;49.976;11.858;2022-07-29T09:04:21;24.20;88.00
16823;DHT22;8528;49.976;11.858;2022-07-29T09:06:51;24.20;89.40
16823;DHT22;8528;49.976;11.858;2022-07-29T09:09:18;24.00;89.50
16823;DHT22;8528;49.976;11.858;2022-07-29T09:11:46;24.10;90.00
16823;DHT22;8528;49.976;11.858;2022-07-29T09:14:14;24.00;88.50
16823;DHT22;8528;49.976;11.858;2022-07-29T09:16:55;23.80;90.40
16823;DHT22;8528;49.976;11.858;2022-07-29T09:19:31;23.70;90.50
16823;DHT22;8528;49.976;11.858;2022-07-29T09:21:59;23.80;90.70
16823;DHT22;8528;49.976;11.858;2022-07-29T09:24:43;23.90;90.70
16823;DHT22;8528;49.976;11.858;2022-07-29T09:27:23;24.00;90.10
16823;DHT22;8528;49.976;11.858;2022-07-29T09:30:04;24.10;89.90
16823;DHT22;8528;49.976;11.858;2022-07-29T09:32:33;24.20;89.70
16823;DHT22;8528;49.976;11.858;2022-07-29T09:35:19;24.20;90.00
16823;DHT22;8528;49.976;11.858;2022-07-29T09:37:51;24.20;89.80
16823;DHT22;8528;49.976;11.858;2022-07-29T09:40:21;24.20;89.40
16823;DHT22;8528;49.976;11.858;2022-07-29T09:42:49;24.30;89.80
16823;DHT22;8528;49.976;11.858;2022-07-29T09:45:33;24.60;89.20
16823;DHT22;8528;49.976;11.858;2022-07-29T09:48:23;25.10;86.10
16823;DHT22;8528;49.976;11.858;2022-07-29T09:50:51;25.30;87.00
16823;DHT22;8528;49.976;11.858;2022-07-29T09:53:33;25.50;85.90
16823;DHT22;8528;49.976;11.858;2022-07-29T09:56:00;25.90;83.70
16823;DHT22;8528;49.976;11.858;2022-07-29T09:58:28;26.30;83.00
16823;DHT22;8528;49.976;11.858;2022-07-29T10:00:55;26.70;80.20
16823;DHT22;8528;49.976;11.858;2022-07-29T10:03:22;27.10;77.60
16823;DHT22;8528;49.976;11.858;2022-07-29T10:06:10;27.30;77.50
16823;DHT22;8528;49.976;11.858;2022-07-29T10:08:41;27.50;76.10
16823;DHT22;8528;49.976;11.858;2022-07-29T10:11:19;27.40;75.50
16823;DHT22;8528;49.976;11.858;2022-07-29T10:13:47;27.00;75.70
16823;DHT22;8528;49.976;11.858;2022-07-29T10:16:16;26.60;76.30
16823;DHT22;8528;49.976;11.858;2022-07-29T10:18:44;26.60;77.30
16823;DHT22;8528;49.976;11.858;2022-07-29T10:21:11;26.80;75.10
16823;DHT22;8528;49.976;11.858;2022-07-29T10:23:59;27.30;73.40
16823;DHT22;8528;49.976;11.858;2022-07-29T10:26:28;27.50;72.60
16823;DHT22;8528;49.976;11.858;2022-07-29T10:28:55;27.50;73.40
16823;DHT22;8528;49.976;11.858;2022-07-29T10:31:28;27.60;73.40
16823;DHT22;8528;49.976;11.858;2022-07-29T10:42:21;28.40;69.20
16823;DHT22;8528;49.976;11.858;2022-07-29T10:44:58;28.00;68.70
16823;DHT22;8528;49.976;11.858;2022-07-29T10:47:26;27.40;69.80
16823;DHT22;8528;49.976;11.858;2022-07-29T10:49:56;27.00;71.20
16823;DHT22;8528;49.976;11.858;2022-07-29T10:52:55;26.90;71.70
16823;DHT22;8528;49.976;11.858;2022-07-29T10:58:14;27.00;72.20
16823;DHT22;8528;49.976;11.858;2022-07-29T11:00:46;27.20;71.30
16823;DHT22;8528;49.976;11.858;2022-07-29T11:06:16;27.00;71.90
16823;DHT22;8528;49.976;11.858;2022-07-29T11:09:15;26.60;72.50
16823;DHT22;8528;49.976;11.858;2022-07-29T11:11:42;26.10;74.80
16823;DHT22;8528;49.976;11.858;2022-07-29T11:14:18;25.90;75.60
16823;DHT22;8528;49.976;11.858;2022-07-29T11:17:11;25.70;75.70
16823;DHT22;8528;49.976;11.858;2022-07-29T11:19:39;25.80;75.50
16823;DHT22;8528;49.976;11.858;2022-07-29T11:22:35;25.80;78.00
16823;DHT22;8528;49.976;11.858;2022-07-29T11:25:17;25.80;77.70
16823;DHT22;8528;49.976;11.858;2022-07-29T11:28:13;25.90;76.50
16823;DHT22;8528;49.976;11.858;2022-07-29T11:30:57;26.00;75.30
16823;DHT22;8528;49.976;11.858;2022-07-29T11:33:29;26.10;74.30
16823;DHT22;8528;49.976;11.858;2022-07-29T11:36:16;26.00;74.50
16823;DHT22;8528;49.976;11.858;2022-07-29T11:38:43;26.00;75.90
16823;DHT22;8528;49.976;11.858;2022-07-29T11:41:29;26.00;74.10
16823;DHT22;8528;49.976;11.858;2022-07-29T11:43:59;26.00;74.10
16823;DHT22;8528;49.976;11.858;2022-07-29T11:46:49;26.10;73.80
16823;DHT22;8528;49.976;11.858;2022-07-29T11:49:24;26.40;75.10
16823;DHT22;8528;49.976;11.858;2022-07-29T11:52:02;26.70;71.40
16823;DHT22;8528;49.976;11.858;2022-07-29T11:54:32;26.60;70.40
16823;DHT22;8528;49.976;11.858;2022-07-29T11:57:18;26.60;72.00
16823;DHT22;8528;49.976;11.858;2022-07-29T11:59:48;26.90;74.30
16823;DHT22;8528;49.976;11.858;2022-07-29T12:02:16;27.50;69.40
16823;DHT22;8528;49.976;11.858;2022-07-29T12:05:03;28.00;68.40
16823;DHT22;8528;49.976;11.858;2022-07-29T12:07:37;28.20;69.00
16823;DHT22;8528;49.976;11.858;2022-07-29T12:10:13;28.50;66.60
16823;DHT22;8528;49.976;11.858;2022-07-29T12:12:51;28.50;65.80
16823;DHT22;8528;49.976;11.858;2022-07-29T12:15:19;28.60;63.40
16823;DHT22;8528;49.976;11.858;2022-07-29T12:17:51;28.30;65.10
16823;DHT22;8528;49.976;11.858;2022-07-29T12:20:29;28.20;63.80
16823;DHT22;8528;49.976;11.858;2022-07-29T12:23:05;28.10;64.80
16823;DHT22;8528;49.976;11.858;2022-07-29T12:25:34;28.00;66.40
16823;DHT22;8528;49.976;11.858;2022-07-29T12:28:04;27.90;66.20
16823;DHT22;8528;49.976;11.858;2022-07-29T12:30:50;27.90;66.90
16823;DHT22;8528;49.976;11.858;2022-07-29T12:33:21;28.20;65.90
16823;DHT22;8528;49.976;11.858;2022-07-29T12:36:02;28.70;64.40
16823;DHT22;8528;49.976;11.858;2022-07-29T12:38:42;28.70;63.80
16823;DHT22;8528;49.976;11.858;2022-07-29T12:41:16;28.30;63.10
16823;DHT22;8528;49.976;11.858;2022-07-29T12:43:55;28.20;62.30
16823;DHT22;8528;49.976;11.858;2022-07-29T12:46:23;28.20;63.20
16823;DHT22;8528;49.976;11.858;2022-07-29T12:48:54;28.00;63.90
16823;DHT22;8528;49.976;11.858;2022-07-29T12:51:40;27.90;63.20
16823;DHT22;8528;49.976;11.858;2022-07-29T12:54:13;27.70;61.00
16823;DHT22;8528;49.976;11.858;2022-07-29T12:56:41;27.50;60.10
16823;DHT22;8528;49.976;11.858;2022-07-29T12:59:15;27.70;58.50
16823;DHT22;8528;49.976;11.858;2022-07-29T13:01:42;27.80;58.60
16823;DHT22;8528;49.976;11.858;2022-07-29T13:04:10;27.60;59.30
16823;DHT22;8528;49.976;11.858;2022-07-29T13:06:45;27.20;61.50
16823;DHT22;8528;49.976;11.858;2022-07-29T13:09:20;26.50;69.10
16823;DHT22;8528;49.976;11.858;2022-07-29T13:11:53;25.30;72.30
16823;DHT22;8528;49.976;11.858;2022-07-29T13:17:05;23.80;78.20
16823;DHT22;8528;49.976;11.858;2022-07-29T13:19:37;23.40;80.50
16823;DHT22;8528;49.976;11.858;2022-07-29T13:22:11;22.90;82.40
16823;DHT22;8528;49.976;11.858;2022-07-29T13:27:19;22.20;86.70
16823;DHT22;8528;49.976;11.858;2022-07-29T13:29:46;21.80;89.10
16823;DHT22;8528;49.976;11.858;2022-07-29T13:32:14;21.50;90.70
16823;DHT22;8528;49.976;11.858;2022-07-29T13:34:41;21.10;92.40
16823;DHT22;8528;49.976;11.858;2022-07-29T13:37:08;20.90;94.40
16823;DHT22;8528;49.976;11.858;2022-07-29T13:39:34;20.60;96.70
16823;DHT22;8528;49.976;11.858;2022-07-29T13:42:01;20.50;99.90
16823;DHT22;8528;49.976;11.858;2022-07-29T13:44:36;20.30;99.90
16823;DHT22;8528;49.976;11.858;2022-07-29T13:47:06;20.20;99.90
16823;DHT22;8528;49.976;11.858;2022-07-29T13:49:40;20.10;99.90
16823;DHT22;8528;49.976;11.858;2022-07-29T13:52:10;20.20;99.90
16823;DHT22;8528;49.976;11.858;2022-07-29T13:54:46;20.10;99.90
16823;DHT22;8528;49.976;11.858;2022-07-29T13:57:15;20.10;99.90
16823;DHT22;8528;49.976;11.858;2022-07-29T13:59:43;20.00;99.90
16823;DHT22;8528;49.976;11.858;2022-07-29T14:02:19;19.60;99.90
16823;DHT22;8528;49.976;11.858;2022-07-29T14:04:50;19.20;99.90
16823;DHT22;8528;49.976;11.858;2022-07-29T14:07:17;18.80;99.90
16823;DHT22;8528;49.976;11.858;2022-07-29T14:09:44;18.60;99.90
16823;DHT22;8528;49.976;11.858;2022-07-29T14:12:11;18.50;99.90
16823;DHT22;8528;49.976;11.858;2022-07-29T14:14:38;18.50;99.90
16823;DHT22;8528;49.976;11.858;2022-07-29T14:17:05;18.60;99.90
16823;DHT22;8528;49.976;11.858;2022-07-29T14:19:35;18.70;99.90
16823;DHT22;8528;49.976;11.858;2022-07-29T14:22:05;18.80;99.90
16823;DHT22;8528;49.976;11.858;2022-07-29T14:24:34;18.90;99.90
16823;DHT22;8528;49.976;11.858;2022-07-29T14:27:03;18.90;99.90
16823;DHT22;8528;49.976;11.858;2022-07-29T14:29:37;19.30;99.90
16823;DHT22;8528;49.976;11.858;2022-07-29T14:32:08;19.70;99.90
16823;DHT22;8528;49.976;11.858;2022-07-29T14:34:39;20.20;99.90
16823;DHT22;8528;49.976;11.858;2022-07-29T14:37:06;20.40;99.90
16823;DHT22;8528;49.976;11.858;2022-07-29T14:39:41;20.50;99.90
16823;DHT22;8528;49.976;11.858;2022-07-29T14:42:11;20.50;99.90
16823;DHT22;8528;49.976;11.858;2022-07-29T14:44:41;20.00;99.90
16823;DHT22;8528;49.976;11.858;2022-07-29T14:47:10;19.80;99.90
16823;DHT22;8528;49.976;11.858;2022-07-29T14:49:37;19.50;99.90
16823;DHT22;8528;49.976;11.858;2022-07-29T14:52:04;19.40;99.90
16823;DHT22;8528;49.976;11.858;2022-07-29T14:54:30;19.90;99.90
16823;DHT22;8528;49.976;11.858;2022-07-29T14:56:57;20.70;99.90
16823;DHT22;8528;49.976;11.858;2022-07-29T14:59:25;21.50;99.90
16823;DHT22;8528;49.976;11.858;2022-07-29T15:01:52;22.50;99.90
16823;DHT22;8528;49.976;11.858;2022-07-29T15:04:19;23.30;99.90
16823;DHT22;8528;49.976;11.858;2022-07-29T15:06:47;23.60;99.90
16823;DHT22;8528;49.976;11.858;2022-07-29T15:09:17;23.60;99.90
16823;DHT22;8528;49.976;11.858;2022-07-29T15:11:44;23.40;99.90
16823;DHT22;8528;49.976;11.858;2022-07-29T15:14:11;23.10;99.90
16823;DHT22;8528;49.976;11.858;2022-07-29T15:16:39;22.40;99.90
16823;DHT22;8528;49.976;11.858;2022-07-29T15:19:12;21.90;99.90
16823;DHT22;8528;49.976;11.858;2022-07-29T15:21:43;21.40;99.90
16823;DHT22;8528;49.976;11.858;2022-07-29T15:24:16;21.30;99.90
16823;DHT22;8528;49.976;11.858;2022-07-29T15:26:43;21.20;99.90
16823;DHT22;8528;49.976;11.858;2022-07-29T15:29:13;21.10;99.90
16823;DHT22;8528;49.976;11.858;2022-07-29T15:31:43;21.00;99.90
16823;DHT22;8528;49.976;11.858;2022-07-29T15:34:12;20.80;99.90
16823;DHT22;8528;49.976;11.858;2022-07-29T15:36:47;20.70;99.90
16823;DHT22;8528;49.976;11.858;2022-07-29T15:39:19;20.60;99.90
16823;DHT22;8528;49.976;11.858;2022-07-29T15:41:47;20.20;99.90
16823;DHT22;8528;49.976;11.858;2022-07-29T15:44:16;19.90;99.90
16823;DHT22;8528;49.976;11.858;2022-07-29T15:46:43;19.70;99.90
16823;DHT22;8528;49.976;11.858;2022-07-29T15:49:37;19.60;99.90
16823;DHT22;8528;49.976;11.858;2022-07-29T15:52:18;19.50;99.90
16823;DHT22;8528;49.976;11.858;2022-07-29T15:54:54;19.40;99.90
16823;DHT22;8528;49.976;11.858;2022-07-29T15:57:22;19.20;99.90
16823;DHT22;8528;49.976;11.858;2022-07-29T15:59:51;19.10;99.90
16823;DHT22;8528;49.976;11.858;2022-07-29T16:02:19;19.10;99.90
16823;DHT22;8528;49.976;11.858;2022-07-29T16:04:52;19.00;99.90
16823;DHT22;8528;49.976;11.858;2022-07-29T16:07:19;18.90;99.90
16823;DHT22;8528;49.976;11.858;2022-07-29T16:09:45;19.00;99.90
16823;DHT22;8528;49.976;11.858;2022-07-29T16:12:18;18.90;99.90
16823;DHT22;8528;49.976;11.858;2022-07-29T16:14:45;18.80;99.90
16823;DHT22;8528;49.976;11.858;2022-07-29T16:17:15;18.80;99.90
16823;DHT22;8528;49.976;11.858;2022-07-29T16:19:45;18.80;99.90
16823;DHT22;8528;49.976;11.858;2022-07-29T16:22:14;18.70;99.90
16823;DHT22;8528;49.976;11.858;2022-07-29T16:24:41;18.60;99.90
16823;DHT22;8528;49.976;11.858;2022-07-29T16:27:08;18.40;99.90
16823;DHT22;8528;49.976;11.858;2022-07-29T16:29:35;18.30;99.90
16823;DHT22;8528;49.976;11.858;2022-07-29T16:32:04;18.20;99.90
16823;DHT22;8528;49.976;11.858;2022-07-29T16:34:31;18.10;99.90
16823;DHT22;8528;49.976;11.858;2022-07-29T16:37:01;17.90;99.90
16823;DHT22;8528;49.976;11.858;2022-07-29T16:39:29;17.90;99.90
16823;DHT22;8528;49.976;11.858;2022-07-29T16:41:55;17.90;99.90